createdAt,value
2023-05-10T00:01:53.872Z,12.48
2023-05-10T00:04:21.737Z,12.49
2023-05-10T00:06:49.580Z,12.45
2023-05-10T00:09:17.656Z,12.51
2023-05-10T00:11:45.352Z,12.59
2023-05-10T00:14:13.314Z,12.56
2023-05-10T00:16:42.901Z,12.52
2023-05-10T00:19:10.650Z,12.61
2023-05-10T00:21:38.352Z,12.56
2023-05-10T00:24:06.964Z,12.46
2023-05-10T00:26:34.589Z,12.33
2023-05-10T00:29:02.260Z,12.39
2023-05-10T00:31:30.357Z,12.39
2023-05-10T00:33:59.437Z,12.40
2023-05-10T00:36:27.160Z,12.40
2023-05-10T00:38:55.121Z,12.44
2023-05-10T00:41:22.899Z,12.43
2023-05-10T00:43:50.529Z,12.40
2023-05-10T00:46:19.005Z,12.41
2023-05-10T00:48:48.401Z,12.40
2023-05-10T00:51:17.689Z,12.42
2023-05-10T00:53:46.484Z,12.44
2023-05-10T00:56:14.295Z,12.42
2023-05-10T00:58:42.359Z,12.39
2023-05-10T01:01:12.015Z,12.33
2023-05-10T01:03:40.649Z,12.28
2023-05-10T01:06:08.546Z,12.32
2023-05-10T01:08:38.829Z,12.21
2023-05-10T01:11:06.580Z,12.21
2023-05-10T01:13:38.631Z,12.23
2023-05-10T01:16:07.665Z,12.21
2023-05-10T01:18:39.262Z,12.19
2023-05-10T01:21:19.943Z,12.20
2023-05-10T01:24:12.039Z,12.11
2023-05-10T01:27:17.645Z,12.12
2023-05-10T01:30:24.492Z,12.10
2023-05-10T01:33:04.060Z,12.03
2023-05-10T01:35:39.960Z,11.95
2023-05-10T01:38:17.671Z,11.91
2023-05-10T01:41:03.813Z,11.94
2023-05-10T01:43:39.012Z,11.90
2023-05-10T01:46:12.279Z,11.88
2023-05-10T01:48:49.145Z,11.82
2023-05-10T01:51:23.072Z,11.75
2023-05-10T01:53:53.464Z,11.84
2023-05-10T01:56:25.579Z,11.79
2023-05-10T01:58:55.012Z,11.73
2023-05-10T02:01:23.923Z,11.72
2023-05-10T02:03:54.718Z,11.65
2023-05-10T02:06:24.218Z,11.70
2023-05-10T02:08:53.060Z,11.61
2023-05-10T02:11:24.104Z,11.55
2023-05-10T02:13:54.189Z,11.57
2023-05-10T02:16:26.188Z,11.60
2023-05-10T02:18:56.271Z,11.56
2023-05-10T02:21:25.817Z,11.51
2023-05-10T02:23:55.750Z,11.47
2023-05-10T02:26:26.976Z,11.47
2023-05-10T02:28:57.178Z,11.50
2023-05-10T02:31:25.679Z,11.44
2023-05-10T02:33:55.923Z,11.40
2023-05-10T02:36:25.147Z,11.42
2023-05-10T02:38:54.714Z,11.43
2023-05-10T02:41:24.805Z,11.41
2023-05-10T02:43:57.423Z,11.39
2023-05-10T02:46:26.153Z,11.44
2023-05-10T02:48:55.319Z,11.36
2023-05-10T02:51:31.367Z,11.40
2023-05-10T02:54:03.557Z,11.33
2023-05-10T02:56:35.561Z,11.34
2023-05-10T02:59:03.379Z,11.23
2023-05-10T03:01:31.516Z,11.24
2023-05-10T03:04:01.163Z,11.20
2023-05-10T03:06:29.597Z,11.17
2023-05-10T03:08:57.440Z,11.16
2023-05-10T03:11:38.059Z,11.13
2023-05-10T03:14:12.254Z,11.11
2023-05-10T03:16:46.604Z,11.06
2023-05-10T03:19:23.418Z,11.01
2023-05-10T03:21:55.340Z,11.05
2023-05-10T03:24:25.325Z,11.07
2023-05-10T03:26:58.426Z,11.04
2023-05-10T03:29:28.105Z,11.05
2023-05-10T03:31:55.902Z,10.99
2023-05-10T03:34:27.913Z,10.98
2023-05-10T03:36:55.673Z,10.97
2023-05-10T03:39:23.347Z,10.96
2023-05-10T03:41:51.587Z,10.97
2023-05-10T03:44:19.714Z,10.90
2023-05-10T03:46:47.448Z,10.89
2023-05-10T03:49:15.412Z,10.98
2023-05-10T03:51:44.534Z,10.89
2023-05-10T03:54:12.410Z,10.89
2023-05-10T03:56:40.093Z,10.90
2023-05-10T03:59:10.070Z,10.84
2023-05-10T04:01:37.793Z,10.85
2023-05-10T04:04:05.844Z,10.82
2023-05-10T04:06:33.931Z,10.85
2023-05-10T04:09:05.141Z,10.85
2023-05-10T04:11:33.082Z,10.79
2023-05-10T04:14:00.734Z,10.91
2023-05-10T04:16:28.970Z,10.89
2023-05-10T04:18:56.638Z,10.96
2023-05-10T04:21:24.277Z,10.89
2023-05-10T04:23:52.415Z,10.93
2023-05-10T04:26:21.563Z,10.92
2023-05-10T04:28:49.608Z,11.00
2023-05-10T04:31:17.379Z,10.94
2023-05-10T04:33:45.128Z,10.93
2023-05-10T04:36:12.995Z,10.94
2023-05-10T04:38:41.495Z,10.97
2023-05-10T04:41:10.423Z,10.93
2023-05-10T04:43:40.434Z,10.99
2023-05-10T04:46:08.310Z,11.04
2023-05-10T04:48:36.617Z,11.09
2023-05-10T04:51:05.753Z,11.09
2023-05-10T04:53:33.500Z,11.17
2023-05-10T04:56:01.941Z,11.15
2023-05-10T04:58:30.093Z,11.12
2023-05-10T05:00:59.321Z,11.13
2023-05-10T05:03:27.165Z,11.16
2023-05-10T05:05:55.478Z,11.22
2023-05-10T05:08:24.636Z,11.27
2023-05-10T05:10:52.775Z,11.36
2023-05-10T05:13:20.952Z,11.37
2023-05-10T05:15:48.713Z,11.39
2023-05-10T05:18:17.790Z,11.50
2023-05-10T05:20:45.901Z,11.55
2023-05-10T05:23:13.559Z,11.63
2023-05-10T05:25:41.294Z,11.74
2023-05-10T05:28:09.399Z,11.75
2023-05-10T05:30:37.171Z,11.88
2023-05-10T05:33:05.010Z,11.96
2023-05-10T05:35:34.576Z,11.98
2023-05-10T05:38:02.246Z,11.99
2023-05-10T05:40:29.944Z,12.10
2023-05-10T05:42:57.930Z,12.13
2023-05-10T05:45:25.613Z,12.17
2023-05-10T05:47:53.327Z,12.29
2023-05-10T05:50:21.341Z,12.37
2023-05-10T05:52:50.312Z,12.42
2023-05-10T05:55:18.543Z,12.62
2023-05-10T05:57:47.251Z,12.58
2023-05-10T06:00:16.302Z,12.60
2023-05-10T06:02:44.346Z,12.70
2023-05-10T06:05:12.125Z,12.73
2023-05-10T06:07:41.175Z,12.78
2023-05-10T06:10:10.788Z,12.83
2023-05-10T06:12:38.771Z,12.90
2023-05-10T06:15:07.288Z,12.95
2023-05-10T06:17:35.250Z,13.00
2023-05-10T06:20:03.008Z,13.10
2023-05-10T06:22:30.772Z,13.21
2023-05-10T06:24:58.952Z,13.33
2023-05-10T06:27:27.973Z,13.30
2023-05-10T06:30:02.157Z,13.32
2023-05-10T06:32:37.230Z,13.41
2023-05-10T06:35:06.271Z,13.51
2023-05-10T06:37:34.124Z,13.60
2023-05-10T06:40:01.834Z,13.60
2023-05-10T06:42:31.354Z,13.68
2023-05-10T06:44:58.957Z,13.79
2023-05-10T06:47:26.701Z,13.83
2023-05-10T06:49:54.786Z,13.87
2023-05-10T06:52:22.446Z,13.94
2023-05-10T06:54:50.728Z,13.88
2023-05-10T06:57:30.574Z,14.02
2023-05-10T07:00:01.294Z,14.07
2023-05-10T07:02:29.335Z,14.04
2023-05-10T07:04:58.419Z,14.15
2023-05-10T07:07:28.014Z,14.21
2023-05-10T07:09:57.882Z,14.29
2023-05-10T07:12:25.692Z,14.26
2023-05-10T07:14:53.383Z,14.36
2023-05-10T07:17:22.868Z,14.35
2023-05-10T07:19:50.806Z,14.45
2023-05-10T07:22:19.036Z,14.47
2023-05-10T07:24:47.142Z,14.56
2023-05-10T07:27:15.275Z,14.67
2023-05-10T07:29:43.109Z,14.75
2023-05-10T07:32:10.906Z,14.75
2023-05-10T07:34:40.343Z,14.94
2023-05-10T07:37:08.375Z,15.00
2023-05-10T07:39:36.014Z,15.04
2023-05-10T07:42:04.197Z,15.05
2023-05-10T07:44:31.910Z,15.09
2023-05-10T07:46:59.524Z,15.24
2023-05-10T07:49:28.256Z,15.33
2023-05-10T07:51:57.496Z,15.44
2023-05-10T07:54:26.289Z,15.40
2023-05-10T07:56:54.013Z,15.48
2023-05-10T07:59:23.046Z,15.59
2023-05-10T08:01:50.784Z,15.80
2023-05-10T08:04:18.536Z,15.88
2023-05-10T08:06:46.675Z,15.88
2023-05-10T08:09:15.955Z,15.94
2023-05-10T08:11:43.616Z,15.97
2023-05-10T08:14:12.360Z,16.10
2023-05-10T08:16:40.088Z,16.25
2023-05-10T08:19:08.328Z,16.36
2023-05-10T08:21:37.064Z,16.48
2023-05-10T08:24:05.732Z,16.60
2023-05-10T08:26:34.919Z,16.75
2023-05-10T08:29:03.019Z,16.95
2023-05-10T08:31:30.782Z,16.98
2023-05-10T08:33:58.455Z,17.10
2023-05-10T08:36:27.211Z,17.22
2023-05-10T08:38:55.959Z,17.25
2023-05-10T08:41:24.812Z,17.56
2023-05-10T08:43:55.076Z,17.56
2023-05-10T08:46:24.713Z,17.73
2023-05-10T08:48:53.807Z,17.67
2023-05-10T08:51:25.220Z,17.76
2023-05-10T08:53:53.147Z,17.76
2023-05-10T08:56:21.773Z,17.85
2023-05-10T08:58:50.553Z,17.96
2023-05-10T09:01:21.237Z,18.20
2023-05-10T09:03:49.806Z,18.31
2023-05-10T09:06:18.000Z,18.36
2023-05-10T09:08:46.817Z,18.56
2023-05-10T09:11:15.549Z,18.70
2023-05-10T09:13:44.323Z,18.76
2023-05-10T09:16:21.179Z,18.91
2023-05-10T09:18:51.835Z,19.02
2023-05-10T09:21:21.129Z,19.05
2023-05-10T09:23:50.929Z,19.15
2023-05-10T09:26:18.883Z,19.39
2023-05-10T09:28:54.374Z,19.26
2023-05-10T09:31:22.740Z,19.19
2023-05-10T09:33:52.550Z,19.27
2023-05-10T09:36:20.606Z,19.33
2023-05-10T09:38:50.066Z,19.38
2023-05-10T09:41:19.371Z,19.50
2023-05-10T09:43:47.486Z,19.65
2023-05-10T09:46:15.530Z,19.87
2023-05-10T09:48:45.056Z,19.75
2023-05-10T09:51:21.124Z,19.89
2023-05-10T09:53:49.227Z,20.11
2023-05-10T09:56:35.853Z,20.36
2023-05-10T09:59:07.686Z,20.46
2023-05-10T10:01:35.936Z,20.50
2023-05-10T10:04:05.911Z,20.45
2023-05-10T10:06:39.575Z,20.49
2023-05-10T10:09:08.745Z,20.79
2023-05-10T10:11:38.251Z,20.75
2023-05-10T10:14:06.127Z,20.84
2023-05-10T10:16:34.963Z,20.88
2023-05-10T10:19:03.188Z,20.99
2023-05-10T10:21:32.441Z,21.00
2023-05-10T10:24:01.579Z,21.08
2023-05-10T10:26:29.644Z,21.16
2023-05-10T10:29:09.868Z,21.26
2023-05-10T10:31:42.972Z,21.39
2023-05-10T10:34:14.414Z,21.48
2023-05-10T10:36:44.289Z,21.63
2023-05-10T10:39:14.144Z,21.60
2023-05-10T10:41:50.953Z,21.62
2023-05-10T10:44:26.057Z,21.54
2023-05-10T10:47:31.152Z,21.72
2023-05-10T10:50:07.666Z,21.73
2023-05-10T10:52:37.293Z,21.76
2023-05-10T10:55:09.196Z,21.55
2023-05-10T10:57:46.995Z,21.75
2023-05-10T11:00:27.007Z,21.87
2023-05-10T11:02:57.478Z,22.10
2023-05-10T11:05:25.611Z,21.82
2023-05-10T11:07:54.673Z,21.89
2023-05-10T11:10:23.917Z,22.00
2023-05-10T11:12:56.551Z,22.11
2023-05-10T11:15:32.560Z,22.25
2023-05-10T11:18:00.575Z,22.41
2023-05-10T11:20:34.769Z,22.04
2023-05-10T11:23:16.493Z,22.25
2023-05-10T11:25:47.398Z,22.34
2023-05-10T11:28:15.355Z,22.56
2023-05-10T11:30:46.384Z,22.68
2023-05-10T11:33:19.140Z,22.27
2023-05-10T11:35:47.337Z,22.64
2023-05-10T11:38:15.935Z,22.73
2023-05-10T11:40:45.615Z,22.85
2023-05-10T11:43:13.423Z,22.75
2023-05-10T11:45:43.249Z,22.96
2023-05-10T11:48:11.559Z,22.99
2023-05-10T11:50:39.247Z,22.87
2023-05-10T11:53:07.305Z,23.01
2023-05-10T11:55:35.960Z,23.09
2023-05-10T11:58:05.029Z,23.08
2023-05-10T12:00:33.703Z,23.31
2023-05-10T12:03:02.928Z,23.37
2023-05-10T12:05:34.248Z,23.33
2023-05-10T12:08:15.401Z,23.45
2023-05-10T12:10:44.029Z,23.54
2023-05-10T12:13:16.453Z,23.61
2023-05-10T12:15:45.327Z,23.70
2023-05-10T12:18:13.714Z,23.94
2023-05-10T12:20:41.932Z,23.93
2023-05-10T12:23:11.935Z,24.03
2023-05-10T12:25:40.667Z,24.08
2023-05-10T12:28:11.694Z,24.24
2023-05-10T12:30:41.092Z,24.36
2023-05-10T12:33:13.310Z,24.59
2023-05-10T12:35:48.538Z,24.52
2023-05-10T12:38:28.861Z,24.48
2023-05-10T12:40:57.025Z,24.21
2023-05-10T12:43:24.908Z,24.02
2023-05-10T12:45:54.639Z,24.10
2023-05-10T12:48:22.428Z,24.35
2023-05-10T12:50:50.421Z,24.52
2023-05-10T12:53:19.362Z,24.60
2023-05-10T12:55:47.134Z,24.37
2023-05-10T12:58:31.445Z,24.58
2023-05-10T13:01:06.223Z,24.43
2023-05-10T13:03:34.211Z,24.34
2023-05-10T13:06:01.999Z,24.28
2023-05-10T13:08:34.720Z,24.47
2023-05-10T13:11:02.572Z,24.52
2023-05-10T13:13:31.437Z,24.57
2023-05-10T13:15:59.081Z,24.34
2023-05-10T13:18:28.489Z,24.42
2023-05-10T13:20:57.035Z,24.43
2023-05-10T13:23:24.744Z,24.72
2023-05-10T13:25:52.684Z,24.88
2023-05-10T13:28:20.414Z,24.94
2023-05-10T13:30:48.559Z,24.69
2023-05-10T13:33:16.318Z,24.65
2023-05-10T13:35:46.562Z,24.71
2023-05-10T13:38:15.154Z,24.77
2023-05-10T13:40:44.012Z,24.88
2023-05-10T13:43:11.711Z,24.96
2023-05-10T13:45:39.877Z,24.98
2023-05-10T13:48:08.149Z,24.73
2023-05-10T13:50:36.259Z,24.77
2023-05-10T13:53:06.344Z,24.72
2023-05-10T13:55:34.851Z,24.71
2023-05-10T13:58:02.443Z,24.84
2023-05-10T14:00:30.839Z,25.04
2023-05-10T14:02:58.633Z,25.04
2023-05-10T14:05:27.318Z,25.10
2023-05-10T14:07:55.733Z,24.94
2023-05-10T14:10:24.747Z,24.87
2023-05-10T14:12:52.990Z,24.72
2023-05-10T14:15:20.660Z,24.76
2023-05-10T14:17:48.729Z,24.81
2023-05-10T14:20:17.460Z,24.96
2023-05-10T14:22:45.688Z,25.02
2023-05-10T14:25:13.717Z,25.13
2023-05-10T14:27:43.163Z,25.22
2023-05-10T14:30:11.878Z,25.11
2023-05-10T14:32:39.658Z,24.94
2023-05-10T14:35:10.698Z,24.85
2023-05-10T14:37:40.017Z,24.91
2023-05-10T14:40:11.242Z,25.03
2023-05-10T14:42:39.292Z,25.04
2023-05-10T14:45:09.774Z,24.95
2023-05-10T14:47:38.180Z,24.82
2023-05-10T14:50:06.845Z,24.84
2023-05-10T14:52:34.570Z,24.56
2023-05-10T14:55:02.788Z,24.48
2023-05-10T14:57:30.593Z,24.31
2023-05-10T14:59:58.332Z,24.24
2023-05-10T15:02:28.372Z,24.33
2023-05-10T15:04:56.621Z,24.53
2023-05-10T15:07:25.312Z,24.62
2023-05-10T15:09:53.249Z,24.67
2023-05-10T15:12:21.442Z,24.67
2023-05-10T15:14:49.108Z,24.42
2023-05-10T15:17:18.217Z,24.34
2023-05-10T15:19:47.324Z,24.37
2023-05-10T15:22:15.366Z,24.50
2023-05-10T15:24:43.103Z,24.42
2023-05-10T15:27:11.125Z,24.23
2023-05-10T15:29:38.791Z,24.29
2023-05-10T15:32:06.840Z,24.36
2023-05-10T15:34:35.796Z,24.21
2023-05-10T15:37:06.369Z,23.86
2023-05-10T15:39:34.032Z,23.86
2023-05-10T15:42:02.903Z,23.74
2023-05-10T15:44:30.693Z,23.77
2023-05-10T15:46:58.481Z,23.77
2023-05-10T15:49:26.788Z,23.89
2023-05-10T15:51:54.476Z,23.87
2023-05-10T15:54:23.607Z,23.60
2023-05-10T15:56:51.582Z,23.51
2023-05-10T15:59:20.089Z,23.40
2023-05-10T16:01:47.806Z,23.22
2023-05-10T16:04:16.431Z,23.20
2023-05-10T16:06:44.516Z,23.25
2023-05-10T16:09:12.259Z,23.16
2023-05-10T16:11:42.483Z,23.12
2023-05-10T16:14:10.175Z,23.02
2023-05-10T16:16:38.171Z,22.98
2023-05-10T16:19:06.387Z,22.90
2023-05-10T16:21:34.222Z,22.81
2023-05-10T16:24:02.038Z,22.81
2023-05-10T16:26:29.993Z,22.84
2023-05-10T16:28:59.065Z,22.77
2023-05-10T16:31:26.882Z,22.81
2023-05-10T16:33:55.138Z,22.92
2023-05-10T16:36:22.929Z,23.02
2023-05-10T16:38:51.182Z,23.05
2023-05-10T16:41:19.399Z,22.81
2023-05-10T16:43:47.129Z,22.78
2023-05-10T16:46:16.207Z,22.78
2023-05-10T16:48:44.402Z,22.84
2023-05-10T16:51:12.364Z,22.73
2023-05-10T16:53:40.154Z,22.73
2023-05-10T16:56:08.705Z,22.70
2023-05-10T16:58:36.472Z,22.66
2023-05-10T17:01:04.192Z,22.64
2023-05-10T17:03:34.574Z,22.66
2023-05-10T17:06:02.386Z,22.49
2023-05-10T17:08:30.452Z,22.29
2023-05-10T17:11:01.688Z,22.22
2023-05-10T17:13:29.797Z,22.23
2023-05-10T17:15:57.842Z,22.06
2023-05-10T17:18:27.700Z,22.02
2023-05-10T17:20:56.984Z,22.06
2023-05-10T17:23:25.240Z,21.81
2023-05-10T17:25:52.921Z,21.68
2023-05-10T17:28:21.068Z,21.70
2023-05-10T17:30:48.861Z,21.70
2023-05-10T17:33:16.628Z,21.51
2023-05-10T17:35:46.820Z,21.37
2023-05-10T17:38:16.036Z,21.22
2023-05-10T17:40:44.976Z,21.33
2023-05-10T17:43:12.673Z,21.25
2023-05-10T17:45:40.372Z,21.16
2023-05-10T17:48:09.584Z,20.98
2023-05-10T17:50:37.389Z,20.99
2023-05-10T17:53:05.300Z,20.99
2023-05-10T17:55:34.327Z,20.94
2023-05-10T17:58:02.064Z,20.83
2023-05-10T18:00:30.806Z,20.82
2023-05-10T18:02:58.592Z,20.66
2023-05-10T18:05:26.880Z,20.67
2023-05-10T18:07:55.998Z,20.63
2023-05-10T18:10:24.874Z,20.58
2023-05-10T18:12:54.174Z,20.49
2023-05-10T18:15:22.252Z,20.39
2023-05-10T18:17:50.673Z,20.33
2023-05-10T18:20:18.466Z,20.28
2023-05-10T18:22:46.364Z,20.25
2023-05-10T18:25:13.995Z,20.16
2023-05-10T18:27:42.000Z,20.06
2023-05-10T18:30:12.366Z,19.97
2023-05-10T18:32:40.419Z,19.91
2023-05-10T18:35:09.154Z,19.81
2023-05-10T18:37:38.565Z,19.78
2023-05-10T18:40:09.774Z,19.73
2023-05-10T18:42:37.618Z,19.58
2023-05-10T18:45:06.378Z,19.52
2023-05-10T18:47:35.943Z,19.36
2023-05-10T18:50:05.500Z,19.29
2023-05-10T18:52:33.221Z,19.23
2023-05-10T18:55:01.657Z,19.08
2023-05-10T18:57:29.402Z,18.96
2023-05-10T18:59:57.204Z,18.88
2023-05-10T19:02:27.015Z,18.79
2023-05-10T19:04:59.467Z,18.75
2023-05-10T19:07:27.839Z,18.70
2023-05-10T19:09:57.261Z,18.65
2023-05-10T19:12:24.938Z,18.56
2023-05-10T19:14:52.614Z,18.46
2023-05-10T19:17:20.600Z,18.47
2023-05-10T19:19:48.487Z,18.43
2023-05-10T19:22:21.416Z,18.39
2023-05-10T19:24:56.550Z,18.33
2023-05-10T19:27:24.329Z,18.32
2023-05-10T19:29:52.550Z,18.28
2023-05-10T19:32:20.230Z,18.19
2023-05-10T19:34:48.378Z,18.19
2023-05-10T19:37:17.397Z,18.08
2023-05-10T19:39:46.269Z,17.97
2023-05-10T19:42:13.957Z,17.84
2023-05-10T19:44:43.247Z,17.84
2023-05-10T19:47:11.907Z,17.85
2023-05-10T19:49:39.608Z,17.73
2023-05-10T19:52:08.337Z,17.67
2023-05-10T19:54:38.130Z,17.60
2023-05-10T19:57:06.256Z,17.61
2023-05-10T19:59:33.885Z,17.64
2023-05-10T20:02:01.491Z,17.70
2023-05-10T20:04:29.981Z,17.63
2023-05-10T20:06:57.752Z,17.68
2023-05-10T20:09:25.402Z,17.58
2023-05-10T20:11:54.807Z,17.53
2023-05-10T20:14:22.593Z,17.54
2023-05-10T20:16:50.374Z,17.47
2023-05-10T20:19:18.566Z,17.41
2023-05-10T20:21:46.323Z,17.36
2023-05-10T20:24:14.009Z,17.34
2023-05-10T20:26:42.205Z,17.36
2023-05-10T20:29:11.913Z,17.37
2023-05-10T20:31:39.603Z,17.34
2023-05-10T20:34:07.742Z,17.27
2023-05-10T20:36:35.492Z,17.24
2023-05-10T20:39:03.249Z,17.24
2023-05-10T20:41:31.214Z,17.19
2023-05-10T20:43:58.876Z,17.14
2023-05-10T20:46:28.084Z,17.07
2023-05-10T20:48:55.865Z,17.06
2023-05-10T20:51:23.575Z,17.02
2023-05-10T20:53:51.296Z,17.06
2023-05-10T20:56:19.651Z,16.98
2023-05-10T20:58:47.364Z,16.94
2023-05-10T21:01:15.898Z,16.89
2023-05-10T21:03:44.923Z,16.76
2023-05-10T21:06:12.656Z,16.71
2023-05-10T21:08:40.765Z,16.66
2023-05-10T21:11:08.524Z,16.52
2023-05-10T21:13:36.719Z,16.47
2023-05-10T21:16:05.583Z,16.40
2023-05-10T21:18:33.387Z,16.39
2023-05-10T21:21:02.973Z,16.29
2023-05-10T21:23:32.421Z,16.24
2023-05-10T21:26:03.874Z,16.20
2023-05-10T21:28:31.686Z,16.20
2023-05-10T21:30:59.535Z,16.20
2023-05-10T21:33:27.608Z,16.17
2023-05-10T21:35:55.494Z,16.14
2023-05-10T21:38:24.784Z,16.05
2023-05-10T21:40:52.439Z,15.91
2023-05-10T21:43:20.098Z,15.84
2023-05-10T21:45:48.114Z,15.84
2023-05-10T21:48:15.870Z,15.79
2023-05-10T21:50:44.334Z,15.68
2023-05-10T21:53:12.185Z,15.67
2023-05-10T21:55:41.244Z,15.60
2023-05-10T21:58:09.267Z,15.57
2023-05-10T22:00:37.002Z,15.59
2023-05-10T22:03:05.373Z,15.55
2023-05-10T22:05:33.565Z,15.49
2023-05-10T22:08:01.217Z,15.51
2023-05-10T22:10:29.641Z,15.50
2023-05-10T22:12:59.610Z,15.42
2023-05-10T22:15:27.936Z,15.36
2023-05-10T22:17:55.940Z,15.29
2023-05-10T22:20:23.683Z,15.17
2023-05-10T22:22:52.524Z,15.26
2023-05-10T22:25:20.368Z,15.23
2023-05-10T22:27:47.998Z,15.18
2023-05-10T22:30:18.223Z,15.10
2023-05-10T22:32:46.410Z,15.05
2023-05-10T22:35:14.128Z,15.01
2023-05-10T22:37:42.174Z,15.00
2023-05-10T22:40:10.944Z,14.97
2023-05-10T22:42:39.027Z,14.98
2023-05-10T22:45:08.403Z,14.88
2023-05-10T22:47:37.547Z,14.85
2023-05-10T22:50:06.541Z,14.83
2023-05-10T22:52:34.234Z,14.74
2023-05-10T22:55:02.276Z,14.75
2023-05-10T22:57:29.919Z,14.70
2023-05-10T22:59:57.667Z,14.69
2023-05-10T23:02:25.518Z,14.68
2023-05-10T23:07:22.456Z,14.60
2023-05-10T23:09:50.485Z,14.59
2023-05-10T23:12:18.234Z,14.51
2023-05-10T23:14:47.524Z,14.55
2023-05-10T23:17:15.531Z,14.51
2023-05-10T23:19:43.221Z,14.49
2023-05-10T23:22:12.349Z,14.52
2023-05-10T23:24:40.933Z,14.42
2023-05-10T23:27:08.615Z,14.43
2023-05-10T23:29:36.745Z,14.37
2023-05-10T23:32:04.541Z,14.33
2023-05-10T23:34:32.614Z,14.36
2023-05-10T23:37:00.579Z,14.31
2023-05-10T23:39:29.730Z,14.28
2023-05-10T23:41:57.912Z,14.30
2023-05-10T23:44:25.632Z,14.26
2023-05-10T23:46:53.443Z,14.14
2023-05-10T23:49:21.777Z,14.09
2023-05-10T23:51:49.389Z,14.07
2023-05-10T23:54:17.190Z,14.14
2023-05-10T23:56:46.683Z,14.09
2023-05-10T23:59:14.362Z,14.08
